createdAt,value
2018-01-27T00:00:45.720Z,6.49
2018-01-27T00:02:41.638Z,6.55
2018-01-27T00:03:41.638Z,6.49
2018-01-27T00:05:38.095Z,6.54
2018-01-27T00:06:38.091Z,6.54
2018-01-27T00:08:31.997Z,6.62
2018-01-27T00:09:33.463Z,6.60
2018-01-27T00:11:28.963Z,6.60
2018-01-27T00:12:28.011Z,6.61
2018-01-27T00:14:24.496Z,6.61
2018-01-27T00:15:23.945Z,6.58
2018-01-27T00:17:20.923Z,6.62
2018-01-27T00:18:20.889Z,6.60
2018-01-27T00:20:14.824Z,6.62
2018-01-27T00:21:14.297Z,6.60
2018-01-27T00:23:08.733Z,6.68
2018-01-27T00:24:09.261Z,6.62
2018-01-27T00:26:04.664Z,6.70
2018-01-27T00:27:04.641Z,6.70
2018-01-27T00:29:00.601Z,6.79
2018-01-27T00:30:00.594Z,6.79
2018-01-27T00:31:57.532Z,6.80
2018-01-27T00:32:56.493Z,6.90
2018-01-27T00:34:52.468Z,6.95
2018-01-27T00:35:52.418Z,6.94
2018-01-27T00:37:48.860Z,7.00
2018-01-27T00:38:48.337Z,6.98
2018-01-27T00:40:44.306Z,6.97
2018-01-27T00:41:44.787Z,6.95
2018-01-27T00:43:40.195Z,7.16
2018-01-27T00:44:40.194Z,7.18
2018-01-27T00:46:36.161Z,7.26
2018-01-27T00:47:36.160Z,7.22
2018-01-27T00:49:32.084Z,7.26
2018-01-27T00:50:32.576Z,7.31
2018-01-27T00:52:28.521Z,7.36
2018-01-27T00:53:27.964Z,7.34
2018-01-27T00:55:24.930Z,7.31
2018-01-27T00:56:23.897Z,7.31
2018-01-27T00:58:19.856Z,7.34
2018-01-27T00:59:19.849Z,7.37
2018-01-27T01:01:15.773Z,7.33
2018-01-27T01:02:15.758Z,7.36
2018-01-27T01:04:11.728Z,7.39
2018-01-27T01:05:11.696Z,7.37
2018-01-27T01:07:08.175Z,7.34
2018-01-27T01:08:07.616Z,7.41
2018-01-27T01:10:04.570Z,7.40
2018-01-27T01:11:03.570Z,7.41
2018-01-27T01:13:00.046Z,7.45
2018-01-27T01:13:59.523Z,7.41
2018-01-27T01:15:56.485Z,7.45
2018-01-27T01:16:55.520Z,7.45
2018-01-27T01:18:51.974Z,7.36
2018-01-27T01:19:51.969Z,7.34
2018-01-27T01:21:45.913Z,7.26
2018-01-27T01:22:46.418Z,7.36
2018-01-27T01:24:41.822Z,7.33
2018-01-27T01:25:41.807Z,7.36
2018-01-27T01:27:37.791Z,7.22
2018-01-27T01:28:37.738Z,7.26
2018-01-27T01:30:33.702Z,7.29
2018-01-27T01:31:33.710Z,7.34
2018-01-27T01:33:33.145Z,7.37
2018-01-27T01:34:31.630Z,7.39
2018-01-27T01:36:27.604Z,7.34
2018-01-27T01:37:27.566Z,7.31
2018-01-27T01:39:24.019Z,7.37
2018-01-27T01:40:24.021Z,7.34
2018-01-27T01:42:17.917Z,7.34
2018-01-27T01:43:18.473Z,7.27
2018-01-27T01:45:13.890Z,7.27
2018-01-27T01:46:13.845Z,7.30
2018-01-27T01:48:08.791Z,7.31
2018-01-27T01:49:08.298Z,7.30
2018-01-27T01:51:04.210Z,7.29
2018-01-27T01:52:04.204Z,7.33
2018-01-27T01:53:59.169Z,7.23
2018-01-27T01:54:58.667Z,7.27
2018-01-27T01:56:54.632Z,7.33
2018-01-27T01:57:54.617Z,7.33
2018-01-27T01:59:50.573Z,7.26
2018-01-27T02:00:50.580Z,7.16
2018-01-27T02:02:47.051Z,7.15
2018-01-27T02:03:47.030Z,7.23
2018-01-27T02:05:42.457Z,7.19
2018-01-27T02:06:42.430Z,7.11
2018-01-27T02:08:36.382Z,7.21
2018-01-27T02:09:35.889Z,7.27
2018-01-27T02:11:31.798Z,7.26
2018-01-27T02:12:31.808Z,7.21
2018-01-27T02:14:27.770Z,7.23
2018-01-27T02:15:29.260Z,7.19
2018-01-27T02:17:23.671Z,7.23
2018-01-27T02:18:23.656Z,7.26
2018-01-27T02:20:19.607Z,7.16
2018-01-27T02:21:19.605Z,7.27
2018-01-27T02:23:16.057Z,7.15
2018-01-27T02:24:15.529Z,7.12
2018-01-27T02:26:11.458Z,7.21
2018-01-27T02:27:11.461Z,7.22
2018-01-27T02:29:07.922Z,7.09
2018-01-27T02:30:07.420Z,7.11
2018-01-27T02:32:03.859Z,7.08
2018-01-27T02:33:03.317Z,7.13
2018-01-27T02:34:59.763Z,7.16
2018-01-27T02:35:59.247Z,7.21
2018-01-27T02:37:55.177Z,7.15
2018-01-27T02:38:55.177Z,7.16
2018-01-27T02:40:51.096Z,7.11
2018-01-27T02:41:51.105Z,7.23
2018-01-27T02:43:46.779Z,7.18
2018-01-27T02:44:46.736Z,7.18
2018-01-27T02:46:43.197Z,7.16
2018-01-27T02:47:43.198Z,7.13
2018-01-27T02:49:39.599Z,7.29
2018-01-27T02:50:38.595Z,7.27
2018-01-27T02:52:34.569Z,7.33
2018-01-27T02:53:35.040Z,7.33
2018-01-27T02:55:30.996Z,7.36
2018-01-27T02:56:30.484Z,7.39
2018-01-27T02:58:26.446Z,7.48
2018-01-27T02:59:26.422Z,7.39
2018-01-27T03:01:23.355Z,7.39
2018-01-27T03:02:22.336Z,7.41
2018-01-27T03:04:20.302Z,7.45
2018-01-27T03:05:18.271Z,7.45
2018-01-27T03:07:14.725Z,7.52
2018-01-27T03:08:14.207Z,7.52
2018-01-27T03:10:10.196Z,7.51
2018-01-27T03:11:10.654Z,7.48
2018-01-27T03:13:04.621Z,7.47
2018-01-27T03:14:05.103Z,7.48
2018-01-27T03:15:59.027Z,7.47
2018-01-27T03:16:59.531Z,7.51
2018-01-27T03:18:54.933Z,7.55
2018-01-27T03:19:54.919Z,7.59
2018-01-27T06:00:31.486Z,6.93
2018-01-27T06:01:30.756Z,6.86
2018-01-27T06:03:26.705Z,6.91
2018-01-27T06:04:26.701Z,6.80
2018-01-27T06:06:22.642Z,6.67
2018-01-27T06:07:24.155Z,6.62
2018-01-27T06:09:18.560Z,6.64
2018-01-27T06:10:18.569Z,6.58
2018-01-27T06:12:15.022Z,6.57
2018-01-27T06:13:14.478Z,6.51
2018-01-27T06:15:10.409Z,6.49
2018-01-27T06:16:10.411Z,6.37
2018-01-27T06:18:06.912Z,6.39
2018-01-27T06:19:06.351Z,6.36
2018-01-27T06:21:02.310Z,6.24
2018-01-27T06:22:02.273Z,6.25
2018-01-27T06:23:56.737Z,6.15
2018-01-27T06:24:56.699Z,6.05
2018-01-27T06:26:53.143Z,6.05
2018-01-27T06:27:52.635Z,6.06
2018-01-27T06:29:48.588Z,6.03
2018-01-27T06:30:48.563Z,6.00
2018-01-27T06:32:44.504Z,6.06
2018-01-27T06:33:44.508Z,6.05
2018-01-27T06:35:40.924Z,5.85
2018-01-27T06:36:40.435Z,5.85
2018-01-27T06:38:36.339Z,5.82
2018-01-27T06:39:36.354Z,5.81
2018-01-27T06:41:35.278Z,5.82
2018-01-27T06:42:34.377Z,5.77
2018-01-27T06:44:30.328Z,5.75
2018-01-27T06:45:30.314Z,5.72
2018-01-27T06:47:26.266Z,5.80
2018-01-27T06:48:26.221Z,5.75
2018-01-27T06:50:20.694Z,5.82
2018-01-27T06:51:20.650Z,5.75
2018-01-27T06:53:16.627Z,5.75
2018-01-27T06:54:17.133Z,5.73
2018-01-27T06:56:12.537Z,5.81
2018-01-27T06:57:12.530Z,5.84
2018-01-27T06:59:08.978Z,5.88
2018-01-27T07:00:08.979Z,5.88
2018-01-27T07:02:04.363Z,5.99
2018-01-27T07:03:04.899Z,5.98
2018-01-27T07:05:00.828Z,6.10
2018-01-27T07:06:00.827Z,6.06
2018-01-27T07:07:56.297Z,6.03
2018-01-27T07:08:56.201Z,6.02
2018-01-27T07:10:52.165Z,6.07
2018-01-27T07:11:52.149Z,6.03
2018-01-27T07:13:48.089Z,5.99
2018-01-27T07:14:48.085Z,6.06
2018-01-27T07:16:44.546Z,6.25
2018-01-27T07:17:43.995Z,6.18
2018-01-27T07:19:39.947Z,6.31
2018-01-27T07:20:40.450Z,6.39
2018-01-27T07:22:35.877Z,6.47
2018-01-27T07:23:35.861Z,6.39
2018-01-27T07:25:32.803Z,6.58
2018-01-27T07:26:31.808Z,6.54
2018-01-27T07:28:27.748Z,6.61
2018-01-27T07:29:28.748Z,6.60
2018-01-27T07:31:23.677Z,6.62
2018-01-27T07:32:24.622Z,6.70
2018-01-27T07:34:19.601Z,6.72
2018-01-27T07:35:19.617Z,6.68
2018-01-27T07:37:16.074Z,6.75
2018-01-27T07:38:15.556Z,6.73
2018-01-27T07:40:12.006Z,6.70
2018-01-27T07:41:11.477Z,6.82
2018-01-27T07:43:06.420Z,6.90
2018-01-27T07:44:05.905Z,6.85
2018-01-27T07:46:03.341Z,6.90
2018-01-27T07:47:01.831Z,7.00
2018-01-27T07:48:58.343Z,7.01
2018-01-27T07:49:57.747Z,7.00
2018-01-27T07:51:52.171Z,6.95
2018-01-27T07:52:52.166Z,6.86
2018-01-27T07:54:48.094Z,6.97
2018-01-27T07:55:48.090Z,6.94
2018-01-27T07:57:44.030Z,7.09
2018-01-27T07:58:44.534Z,7.03
2018-01-27T08:00:39.985Z,7.03
2018-01-27T08:01:39.994Z,7.05
2018-01-27T08:03:36.442Z,7.03
2018-01-27T08:04:36.080Z,7.01
2018-01-27T08:06:32.045Z,7.05
2018-01-27T08:07:32.558Z,7.09
2018-01-27T08:09:27.933Z,7.11
2018-01-27T08:10:27.984Z,7.12
2018-01-27T08:12:24.387Z,7.18
2018-01-27T08:13:23.865Z,7.15
2018-01-27T08:15:20.324Z,7.26
2018-01-27T08:16:20.321Z,7.23
2018-01-27T08:18:15.758Z,7.21
2018-01-27T08:19:15.746Z,7.21
2018-01-27T08:21:12.205Z,7.15
2018-01-27T08:22:12.197Z,7.21
2018-01-27T08:24:07.558Z,7.33
2018-01-27T08:25:06.113Z,7.31
2018-01-27T08:27:02.778Z,7.34
2018-01-27T08:28:02.939Z,7.36
2018-01-27T08:30:10.031Z,7.36
2018-01-27T08:31:09.528Z,7.34
2018-01-27T08:33:04.789Z,7.45
2018-01-27T08:34:04.786Z,7.45
2018-01-27T08:35:59.207Z,7.34
2018-01-27T08:36:59.196Z,7.45
2018-01-27T08:38:57.295Z,7.55
2018-01-27T08:39:58.156Z,7.51
2018-01-27T08:41:53.158Z,7.52
2018-01-27T08:42:53.705Z,7.54
2018-01-27T08:44:49.093Z,7.54
2018-01-27T08:45:49.087Z,7.54
2018-01-27T08:47:46.538Z,7.48
2018-01-27T08:48:45.539Z,7.51
2018-01-27T08:50:41.467Z,7.49
2018-01-27T08:51:41.468Z,7.39
2018-01-27T08:53:37.890Z,7.37
2018-01-27T08:54:36.885Z,7.34
2018-01-27T08:56:31.325Z,7.27
2018-01-27T08:57:31.830Z,7.34
2018-01-27T08:59:25.766Z,7.36
2018-01-27T09:00:24.827Z,7.33
2018-01-27T09:02:19.758Z,7.30
2018-01-27T09:03:19.173Z,7.41
2018-01-27T09:05:15.138Z,7.33
2018-01-27T09:06:15.126Z,7.39
2018-01-27T09:08:11.046Z,7.40
2018-01-27T09:09:11.045Z,7.40
2018-01-27T09:11:07.993Z,7.47
2018-01-27T09:12:06.985Z,7.52
2018-01-27T09:14:03.947Z,7.55
2018-01-27T09:15:02.922Z,7.45
2018-01-27T09:16:59.873Z,7.51
2018-01-27T09:17:58.862Z,7.51
2018-01-27T09:19:54.831Z,7.58
2018-01-27T09:20:54.797Z,7.61
2018-01-27T09:22:50.764Z,7.64
2018-01-27T09:23:50.753Z,7.63
2018-01-27T09:25:59.601Z,7.67
2018-01-27T09:26:59.581Z,7.67
2018-01-27T09:28:55.518Z,7.82
2018-01-27T09:29:55.510Z,7.75
2018-01-27T09:31:51.420Z,7.73
2018-01-27T09:32:51.418Z,7.70
2018-01-27T09:34:48.874Z,7.85
2018-01-27T09:35:48.882Z,7.73
2018-01-27T09:37:41.827Z,7.85
2018-01-27T09:38:41.788Z,7.83
2018-01-27T09:40:38.255Z,7.95
2018-01-27T09:41:37.739Z,7.93
2018-01-27T09:43:34.202Z,8.06
2018-01-27T09:44:34.204Z,7.93
2018-01-27T09:46:30.109Z,7.99
2018-01-27T09:47:29.605Z,8.04
2018-01-27T09:49:28.976Z,8.04
2018-01-27T09:50:24.036Z,8.06
2018-01-27T09:52:20.006Z,8.04
2018-01-27T09:53:19.952Z,7.95
2018-01-27T09:55:18.442Z,7.85
2018-01-27T09:56:17.897Z,7.86
2018-01-27T09:58:15.835Z,7.95
2018-01-27T09:59:15.846Z,7.93
2018-01-27T10:01:11.803Z,7.93
2018-01-27T10:02:11.782Z,7.96
2018-01-27T10:04:07.772Z,7.99
2018-01-27T10:05:08.240Z,8.11
2018-01-27T10:07:03.712Z,8.10
2018-01-27T10:08:04.253Z,8.10
2018-01-27T10:10:01.666Z,8.14
2018-01-27T10:11:01.599Z,8.19
2018-01-27T10:12:58.051Z,8.13
2018-01-27T10:13:57.539Z,8.07
2018-01-27T10:15:54.480Z,8.19
2018-01-27T10:16:53.461Z,8.22
2018-01-27T10:18:49.382Z,8.26
2018-01-27T10:19:49.402Z,8.26
2018-01-27T10:21:47.360Z,8.36
2018-01-27T10:22:47.838Z,8.40
2018-01-27T10:24:45.270Z,8.32
2018-01-27T10:25:45.229Z,8.39
2018-01-27T10:27:43.696Z,8.44
2018-01-27T10:28:43.149Z,8.47
2018-01-27T10:30:42.123Z,8.47
2018-01-27T10:31:41.197Z,8.57
2018-01-27T10:33:39.159Z,8.64
2018-01-27T10:34:39.661Z,8.62
2018-01-27T10:36:37.590Z,8.64
2018-01-27T10:37:38.573Z,8.69
2018-01-27T10:39:35.000Z,8.68
2018-01-27T10:40:34.992Z,8.67
2018-01-27T10:42:30.997Z,8.76
2018-01-27T10:43:30.901Z,8.65
2018-01-27T10:45:30.380Z,8.77
2018-01-27T10:46:28.964Z,8.68
2018-01-27T10:48:26.927Z,8.68
2018-01-27T10:49:26.876Z,8.68
2018-01-27T10:51:25.337Z,8.68
2018-01-27T10:52:24.847Z,8.76
2018-01-27T10:54:22.948Z,8.77
2018-01-27T10:55:23.258Z,8.76
2018-01-27T10:57:21.189Z,8.74
2018-01-27T10:58:21.183Z,8.85
2018-01-27T11:00:19.676Z,8.86
2018-01-27T11:01:19.118Z,9.00
2018-01-27T11:03:17.632Z,8.95
2018-01-27T11:04:17.597Z,9.08
2018-01-27T11:06:14.705Z,9.00
2018-01-27T11:07:14.712Z,9.08
2018-01-27T11:09:12.643Z,9.12
2018-01-27T11:10:12.642Z,9.11
2018-01-27T11:12:10.714Z,9.09
2018-01-27T11:13:11.588Z,9.20
2018-01-27T11:15:09.139Z,9.21
2018-01-27T11:16:09.607Z,9.19
2018-01-27T11:18:06.718Z,9.19
2018-01-27T11:19:07.701Z,9.29
2018-01-27T11:21:04.661Z,9.29
2018-01-27T11:22:04.630Z,9.42
2018-01-27T11:24:03.111Z,9.60
2018-01-27T11:25:02.620Z,9.56
2018-01-27T11:26:58.548Z,9.70
2018-01-27T11:27:59.028Z,9.66
2018-01-27T11:29:57.035Z,9.75
2018-01-27T11:30:56.977Z,9.77
2018-01-27T11:32:54.909Z,9.75
2018-01-27T11:33:54.388Z,9.85
2018-01-27T11:35:53.857Z,9.70
2018-01-27T11:36:54.347Z,9.70
2018-01-27T11:38:50.466Z,9.62
2018-01-27T11:39:50.472Z,9.59
2018-01-27T11:41:50.925Z,9.60
2018-01-27T11:42:50.891Z,9.60
2018-01-27T11:44:49.356Z,9.53
2018-01-27T11:45:48.846Z,9.56
2018-01-27T11:47:47.784Z,9.60
2018-01-27T11:48:47.286Z,9.63
2018-01-27T11:50:45.727Z,9.75
2018-01-27T11:51:45.224Z,9.81
2018-01-27T11:53:43.686Z,9.81
2018-01-27T11:54:43.194Z,9.89
2018-01-27T11:56:40.668Z,9.92
2018-01-27T11:57:41.618Z,9.92
2018-01-27T11:59:38.601Z,9.89
2018-01-27T12:00:38.588Z,9.92
2018-01-27T12:02:37.585Z,9.95
2018-01-27T12:03:37.036Z,9.92
2018-01-27T12:05:35.971Z,9.93
2018-01-27T12:06:34.580Z,9.89
2018-01-27T12:08:31.023Z,9.84
2018-01-27T12:09:31.049Z,9.82
2018-01-27T12:11:26.944Z,9.89
2018-01-27T12:12:26.437Z,9.89
2018-01-27T12:14:23.385Z,9.81
2018-01-27T12:15:22.372Z,9.78
2018-01-27T12:17:18.344Z,9.78
2018-01-27T12:18:18.875Z,9.82
2018-01-27T12:20:17.272Z,9.78
2018-01-27T12:21:16.251Z,9.81
2018-01-27T12:23:14.227Z,9.85
2018-01-27T12:24:14.214Z,9.92
2018-01-27T12:26:12.141Z,9.92
2018-01-27T12:27:12.119Z,10.00
2018-01-27T12:29:09.068Z,10.00
2018-01-27T12:30:08.586Z,9.96
2018-01-27T12:32:07.555Z,10.02
2018-01-27T12:33:07.029Z,9.90
2018-01-27T12:35:04.058Z,9.89
2018-01-27T12:36:04.572Z,9.99
2018-01-27T12:38:03.464Z,10.08
2018-01-27T12:39:02.009Z,10.15
2018-01-27T12:40:58.977Z,10.21
2018-01-27T12:41:58.471Z,10.17
2018-01-27T12:43:55.366Z,10.10
2018-01-27T12:44:53.856Z,10.23
2018-01-27T12:46:54.317Z,10.15
2018-01-27T12:47:53.817Z,10.17
2018-01-27T12:49:51.371Z,10.20
2018-01-27T12:50:50.881Z,10.21
2018-01-27T12:52:47.838Z,10.21
2018-01-27T12:53:46.856Z,10.23
2018-01-27T12:55:45.787Z,10.21
2018-01-27T12:56:44.774Z,10.28
2018-01-27T12:58:44.215Z,10.23
2018-01-27T12:59:43.716Z,10.28
2018-01-27T13:01:41.757Z,10.32
2018-01-27T13:02:40.712Z,10.38
2018-01-27T13:04:39.677Z,10.57
2018-01-27T13:05:38.752Z,10.52
2018-01-27T13:07:39.217Z,10.65
2018-01-27T13:08:39.202Z,10.61
2018-01-27T13:10:38.573Z,10.61
2018-01-27T13:11:37.126Z,10.59
2018-01-27T13:13:36.596Z,10.77
2018-01-27T13:14:35.184Z,10.69
2018-01-27T13:16:34.147Z,10.69
2018-01-27T13:17:34.134Z,10.70
2018-01-27T13:19:31.183Z,10.79
2018-01-27T13:20:32.120Z,10.69
2018-01-27T13:22:27.262Z,10.80
2018-01-27T13:23:27.629Z,10.72
2018-01-27T13:25:25.025Z,10.80
2018-01-27T13:26:25.551Z,10.91
2018-01-27T13:28:25.033Z,10.95
2018-01-27T13:29:23.926Z,10.95
2018-01-27T13:31:19.043Z,10.92
2018-01-27T13:32:19.546Z,10.92
2018-01-27T13:34:14.965Z,10.79
2018-01-27T13:35:15.489Z,10.83
2018-01-27T13:37:09.410Z,10.72
2018-01-27T13:38:09.409Z,10.72
2018-01-27T13:40:05.799Z,10.72
2018-01-27T13:41:03.837Z,10.63
2018-01-27T13:42:59.793Z,10.67
2018-01-27T13:43:59.772Z,10.67
2018-01-27T13:45:55.716Z,10.65
2018-01-27T13:46:55.724Z,10.63
2018-01-27T13:48:50.168Z,10.69
2018-01-27T13:49:50.157Z,10.69
2018-01-27T13:51:46.142Z,10.70
2018-01-27T13:52:47.531Z,10.70
2018-01-27T13:54:39.535Z,10.69
2018-01-27T13:55:39.495Z,10.72
2018-01-27T13:57:32.932Z,10.59
2018-01-27T13:58:32.946Z,10.67
2018-01-27T14:00:28.894Z,10.63
2018-01-27T14:01:28.863Z,10.61
2018-01-27T14:03:24.811Z,10.59
2018-01-27T14:04:24.824Z,10.55
2018-01-27T14:06:21.287Z,10.57
2018-01-27T14:07:21.267Z,10.54
2018-01-27T14:09:16.701Z,10.61
2018-01-27T14:10:17.635Z,10.52
2018-01-27T14:12:13.162Z,10.52
2018-01-27T14:13:12.598Z,10.46
2018-01-27T14:15:08.562Z,10.55
2018-01-27T14:16:08.550Z,10.51
2018-01-27T14:18:04.527Z,10.55
2018-01-27T14:19:05.008Z,10.46
2018-01-27T14:21:00.432Z,10.52
2018-01-27T14:22:00.459Z,10.54
2018-01-27T14:23:56.390Z,10.55
2018-01-27T14:24:56.906Z,10.46
2018-01-27T14:26:52.323Z,10.46
2018-01-27T14:27:52.324Z,10.46
2018-01-27T14:29:48.247Z,10.49
2018-01-27T14:30:48.777Z,10.42
2018-01-27T14:32:44.199Z,10.42
2018-01-27T14:33:44.190Z,10.36
2018-01-27T14:35:42.619Z,10.41
2018-01-27T14:36:39.168Z,10.38
2018-01-27T14:38:41.345Z,10.35
2018-01-27T14:39:40.783Z,10.38
2018-01-27T14:41:46.586Z,10.36
2018-01-27T14:42:46.316Z,10.36
2018-01-27T14:44:49.193Z,10.35
2018-01-27T14:45:48.092Z,10.33
2018-01-27T14:47:51.121Z,10.31
2018-01-27T14:48:48.126Z,10.28
2018-01-27T14:51:08.544Z,10.25
2018-01-27T14:52:07.857Z,10.18
2018-01-27T14:54:10.280Z,10.21
2018-01-27T14:55:08.483Z,10.20
2018-01-27T14:57:11.748Z,10.21
2018-01-27T14:58:09.916Z,10.20
2018-01-27T15:00:15.924Z,10.08
2018-01-27T15:01:13.003Z,10.02
2018-01-27T15:03:13.613Z,9.89
2018-01-27T15:04:14.106Z,9.90
2018-01-27T15:07:21.531Z,9.84
2018-01-27T15:08:21.552Z,9.80
2018-01-27T15:10:22.469Z,9.82
2018-01-27T15:11:23.638Z,9.84
2018-01-27T15:13:23.265Z,9.74
2018-01-27T15:14:22.340Z,9.74
2018-01-27T15:16:26.309Z,9.74
2018-01-27T15:17:24.786Z,9.72
2018-01-27T15:19:24.337Z,9.60
2018-01-27T15:20:24.909Z,9.60
2018-01-27T15:22:22.817Z,9.62
2018-01-27T15:23:22.572Z,9.55
2018-01-27T15:25:19.536Z,9.52
2018-01-27T15:26:18.493Z,9.53
2018-01-27T15:28:14.444Z,9.50
2018-01-27T15:29:14.458Z,9.39
2018-01-27T15:31:10.353Z,9.47
2018-01-27T15:32:10.371Z,9.44
2018-01-27T15:34:06.831Z,9.24
2018-01-27T15:35:06.815Z,9.23
2018-01-27T15:37:05.277Z,9.20
2018-01-27T15:38:04.371Z,9.16
2018-01-27T15:40:02.309Z,9.19
2018-01-27T15:41:00.275Z,9.05
2018-01-27T15:42:54.776Z,9.17
2018-01-27T15:43:54.700Z,9.11
2018-01-27T15:45:49.148Z,9.00
2018-01-27T15:46:49.172Z,8.95
2018-01-27T15:48:44.620Z,8.94
2018-01-27T15:49:43.578Z,8.87
2018-01-27T15:51:40.042Z,8.94
2018-01-27T15:52:39.503Z,8.86
2018-01-27T15:54:36.493Z,8.87
2018-01-27T15:55:36.959Z,8.77
2018-01-27T15:57:34.912Z,8.67
2018-01-27T15:58:34.485Z,8.68
2018-01-27T16:00:30.425Z,8.67
2018-01-27T16:01:30.432Z,8.68
2018-01-27T16:03:23.855Z,8.57
2018-01-27T16:04:23.856Z,8.54
2018-01-27T16:06:21.328Z,8.53
2018-01-27T16:07:19.783Z,8.57
2018-01-27T16:09:16.244Z,8.57
2018-01-27T16:10:15.743Z,8.64
2018-01-27T16:12:11.673Z,8.58
2018-01-27T16:13:11.624Z,8.64
2018-01-27T16:15:08.089Z,8.68
2018-01-27T16:16:07.553Z,8.74
2018-01-27T16:18:03.022Z,8.72
2018-01-27T16:19:02.522Z,8.67
2018-01-27T16:20:56.948Z,8.69
2018-01-27T16:21:56.938Z,8.77
2018-01-27T16:23:53.365Z,8.64
2018-01-27T16:24:52.853Z,8.71
2018-01-27T16:26:48.808Z,8.67
2018-01-27T16:27:48.332Z,8.67
2018-01-27T16:29:44.239Z,8.64
2018-01-27T16:30:44.216Z,8.67
2018-01-27T16:32:40.167Z,8.58
2018-01-27T16:33:40.154Z,8.53
2018-01-27T16:35:36.074Z,8.60
2018-01-27T16:36:36.079Z,8.58
2018-01-27T16:38:32.039Z,8.57
2018-01-27T16:39:32.008Z,8.54
2018-01-27T16:41:28.462Z,8.49
2018-01-27T16:42:27.935Z,8.54
2018-01-27T16:44:23.859Z,8.44
2018-01-27T16:45:23.875Z,8.43
2018-01-27T16:47:19.809Z,8.47
2018-01-27T16:48:19.819Z,8.47
2018-01-27T16:50:18.182Z,8.44
2018-01-27T16:51:15.734Z,8.44
2018-01-27T16:53:12.195Z,8.34
2018-01-27T16:54:12.176Z,8.31
2018-01-27T16:56:08.124Z,8.35
2018-01-27T16:57:07.594Z,8.36
2018-01-27T16:59:03.575Z,8.29
2018-01-27T17:00:03.551Z,8.35
2018-01-27T17:01:59.467Z,8.34
2018-01-27T17:02:59.986Z,8.31
2018-01-27T17:04:55.408Z,8.28
2018-01-27T17:05:55.376Z,8.31
2018-01-27T17:07:52.322Z,8.31
2018-01-27T17:08:51.334Z,8.32
2018-01-27T17:10:47.841Z,8.28
2018-01-27T17:11:47.767Z,8.26
2018-01-27T17:13:43.185Z,8.24
2018-01-27T17:14:43.179Z,8.26
2018-01-27T17:16:40.648Z,8.21
2018-01-27T17:17:40.120Z,8.22
2018-01-27T17:19:36.575Z,8.19
2018-01-27T17:20:36.575Z,8.14
2018-01-27T17:22:31.950Z,8.19
2018-01-27T17:23:31.988Z,8.24
2018-01-27T17:25:27.892Z,8.16
2018-01-27T17:26:27.877Z,8.07
2018-01-27T17:28:24.356Z,8.07
2018-01-27T17:29:23.839Z,8.09
2018-01-27T17:31:20.297Z,7.93
2018-01-27T17:32:19.766Z,8.06
2018-01-27T17:34:16.215Z,7.99
2018-01-27T17:35:15.694Z,7.91
2018-01-27T17:37:13.147Z,7.93
2018-01-27T17:38:12.575Z,7.91
2018-01-27T17:40:08.569Z,7.80
2018-01-27T17:41:07.541Z,7.88
2018-01-27T17:43:03.984Z,7.77
2018-01-27T17:44:03.992Z,7.70
2018-01-27T17:45:59.429Z,7.70
2018-01-27T17:46:59.935Z,7.75
2018-01-27T17:48:57.447Z,7.71
2018-01-27T17:49:57.465Z,7.64
2018-01-27T17:51:54.388Z,7.59
2018-01-27T17:52:53.900Z,7.73
2018-01-27T17:54:51.849Z,7.59
2018-01-27T17:55:51.283Z,7.61
2018-01-27T17:57:45.723Z,7.58
2018-01-27T17:58:45.725Z,7.63
2018-01-27T18:00:41.683Z,7.68
2018-01-27T18:01:41.682Z,7.51
2018-01-27T18:03:39.368Z,7.54
2018-01-27T18:04:37.619Z,7.51
2018-01-27T18:06:46.737Z,7.54
2018-01-27T18:07:46.084Z,7.48
2018-01-27T18:09:44.025Z,7.47
2018-01-27T18:10:42.542Z,7.44
2018-01-27T18:12:36.555Z,7.40
2018-01-27T18:13:36.603Z,7.39
2018-01-27T18:15:32.569Z,7.30
2018-01-27T18:16:32.496Z,7.29
2018-01-27T18:18:27.883Z,7.34
2018-01-27T18:19:26.910Z,7.30
2018-01-27T18:21:23.359Z,7.34
2018-01-27T18:22:23.360Z,7.19
2018-01-27T18:24:19.304Z,7.29
2018-01-27T18:25:18.783Z,7.26
2018-01-27T18:27:17.280Z,7.29
2018-01-27T18:28:14.739Z,7.23
2018-01-27T18:30:12.782Z,7.29
2018-01-27T18:31:12.840Z,7.33
2018-01-27T18:33:10.836Z,7.26
2018-01-27T18:34:10.825Z,7.34
2018-01-27T18:36:07.265Z,7.26
2018-01-27T18:37:06.773Z,7.22
2018-01-27T18:39:04.231Z,7.29
2018-01-27T18:40:03.268Z,7.26
2018-01-27T18:42:00.719Z,7.27
2018-01-27T18:43:00.714Z,7.12
2018-01-27T18:44:56.703Z,7.16
2018-01-27T18:45:56.642Z,7.18
2018-01-27T18:47:52.619Z,7.16
2018-01-27T18:48:53.114Z,7.23
2018-01-27T18:50:49.046Z,7.22
2018-01-27T18:51:48.529Z,7.11
2018-01-27T18:53:45.400Z,7.16
2018-01-27T18:54:44.506Z,7.16
2018-01-27T18:56:40.401Z,7.12
2018-01-27T18:57:40.403Z,7.15
2018-01-27T18:59:37.881Z,7.09
2018-01-27T19:00:36.334Z,7.16
2018-01-27T19:02:32.269Z,7.09
2018-01-27T19:03:32.267Z,7.16
2018-01-27T19:05:28.238Z,7.12
2018-01-27T19:06:28.214Z,7.12
2018-01-27T19:08:24.188Z,7.18
2018-01-27T19:09:24.161Z,7.18
2018-01-27T19:11:20.133Z,7.05
2018-01-27T19:12:20.094Z,7.15
2018-01-27T19:14:19.546Z,7.12
2018-01-27T19:15:19.056Z,7.13
2018-01-27T19:17:14.174Z,7.16
2018-01-27T19:18:14.187Z,7.11
2018-01-27T19:20:10.146Z,7.12
2018-01-27T19:21:10.261Z,7.27
2018-01-27T19:23:06.990Z,7.13
2018-01-27T19:24:06.070Z,7.13
2018-01-27T19:26:02.015Z,7.05
2018-01-27T19:27:02.001Z,7.15
2018-01-27T19:28:57.975Z,7.16
2018-01-27T19:29:58.440Z,7.13
2018-01-27T19:31:53.882Z,7.09
2018-01-27T19:32:53.842Z,7.09
2018-01-27T19:34:50.290Z,7.04
2018-01-27T19:35:49.753Z,7.15
2018-01-27T19:37:45.765Z,7.18
2018-01-27T19:38:45.771Z,7.15
2018-01-27T19:40:41.720Z,7.16
2018-01-27T19:41:41.742Z,7.15
2018-01-27T19:43:37.650Z,7.09
2018-01-27T19:44:37.621Z,7.16
2018-01-27T19:46:33.556Z,7.13
2018-01-27T19:47:34.078Z,7.08
2018-01-27T19:49:29.489Z,7.04
2018-01-27T19:50:29.474Z,7.13
2018-01-27T19:52:25.594Z,7.16
2018-01-27T19:53:26.050Z,7.15
2018-01-27T19:55:21.324Z,7.12
2018-01-27T19:56:21.322Z,7.11
2018-01-27T19:58:18.768Z,7.09
2018-01-27T19:59:17.766Z,7.18
2018-01-27T20:01:11.681Z,7.12
2018-01-27T20:02:11.703Z,7.13
2018-01-27T20:04:07.658Z,7.16
2018-01-27T20:05:07.621Z,7.11
2018-01-27T20:07:04.092Z,7.16
2018-01-27T20:08:03.582Z,7.13
2018-01-27T20:09:59.554Z,7.16
2018-01-27T20:10:59.502Z,7.16
2018-01-27T20:12:55.958Z,7.13
2018-01-27T20:13:55.452Z,7.19
2018-01-27T20:15:51.378Z,7.29
2018-01-27T20:16:51.377Z,7.27
2018-01-27T20:18:47.357Z,7.26
2018-01-27T20:19:47.347Z,7.21
2018-01-27T20:21:44.257Z,7.23
2018-01-27T20:22:44.247Z,7.23
2018-01-27T20:24:39.696Z,7.23
2018-01-27T20:25:39.215Z,7.22
2018-01-27T20:27:34.631Z,7.31
2018-01-27T20:28:34.646Z,7.33
2018-01-27T20:30:30.615Z,7.36
2018-01-27T20:31:30.630Z,7.33
2018-01-27T20:33:27.074Z,7.31
2018-01-27T20:34:27.066Z,7.30
2018-01-27T20:36:22.490Z,7.34
2018-01-27T20:37:23.036Z,7.31
2018-01-27T20:39:17.440Z,7.26
2018-01-27T20:40:17.439Z,7.27
2018-01-27T20:42:11.877Z,7.31
2018-01-27T20:43:11.352Z,7.34
2018-01-27T20:45:07.282Z,7.31
2018-01-27T20:46:07.263Z,7.29
2018-01-27T20:48:03.685Z,7.29
2018-01-27T20:49:03.728Z,7.30
2018-01-27T20:50:59.112Z,7.37
2018-01-27T20:51:59.658Z,7.36
2018-01-27T20:53:55.056Z,7.45
2018-01-27T20:54:55.036Z,7.45
2018-01-27T20:56:51.007Z,7.49
2018-01-27T20:57:50.958Z,7.47
2018-01-27T20:59:46.928Z,7.48
2018-01-27T21:00:47.408Z,7.44
2018-01-27T21:02:42.824Z,7.48
2018-01-27T21:03:41.824Z,7.41
2018-01-27T21:05:37.302Z,7.49
2018-01-27T21:06:38.261Z,7.51
2018-01-27T21:08:35.219Z,7.51
2018-01-27T21:09:35.218Z,7.48
2018-01-27T21:11:31.185Z,7.64
2018-01-27T21:12:31.178Z,7.64
2018-01-27T21:14:27.128Z,7.63
2018-01-27T21:15:27.107Z,7.64
2018-01-27T21:17:23.074Z,7.56
2018-01-27T21:18:23.067Z,7.61
2018-01-27T21:20:20.022Z,7.54
2018-01-27T21:21:19.035Z,7.63
2018-01-27T21:23:16.993Z,7.67
2018-01-27T21:24:16.946Z,7.63
2018-01-27T21:26:11.370Z,7.64
2018-01-27T21:27:11.386Z,7.67
2018-01-27T21:29:07.282Z,7.74
2018-01-27T21:30:07.280Z,7.67
2018-01-27T21:32:03.211Z,7.77
2018-01-27T21:33:03.200Z,7.73
2018-01-27T21:34:59.169Z,7.73
2018-01-27T21:35:59.657Z,7.63
2018-01-27T21:37:55.089Z,7.70
2018-01-27T21:38:55.078Z,7.70
2018-01-27T21:40:52.034Z,7.70
2018-01-27T21:41:51.553Z,7.70
2018-01-27T21:43:48.471Z,7.68
2018-01-27T21:44:46.937Z,7.71
2018-01-27T21:46:42.930Z,7.77
2018-01-27T21:47:42.867Z,7.82
2018-01-27T21:49:38.830Z,7.82
2018-01-27T21:50:38.795Z,7.75
2018-01-27T21:52:33.789Z,7.80
2018-01-27T21:53:33.208Z,7.83
2018-01-27T21:55:28.159Z,7.77
2018-01-27T21:56:27.674Z,7.75
2018-01-27T21:58:21.119Z,7.77
2018-01-27T21:59:21.094Z,7.73
2018-01-27T22:01:15.548Z,7.78
2018-01-27T22:02:16.044Z,7.85
2018-01-27T22:04:12.477Z,7.80
2018-01-27T22:05:12.409Z,7.80
2018-01-27T22:07:08.406Z,7.83
2018-01-27T22:08:07.892Z,7.78
2018-01-27T22:10:03.376Z,7.80